createdAt,value
2023-06-11T00:01:09.896Z,22.15
2023-06-11T00:03:38.059Z,22.13
2023-06-11T00:06:06.198Z,22.15
2023-06-11T00:08:34.111Z,22.13
2023-06-11T00:11:01.957Z,22.09
2023-06-11T00:13:30.521Z,22.09
2023-06-11T00:16:00.707Z,22.08
2023-06-11T00:18:28.688Z,22.05
2023-06-11T00:20:59.384Z,22.03
2023-06-11T00:23:27.338Z,22.02
2023-06-11T00:25:55.155Z,22.04
2023-06-11T00:28:22.976Z,21.98
2023-06-11T00:30:50.985Z,21.96
2023-06-11T00:33:20.158Z,21.99
2023-06-11T00:35:47.884Z,21.98
2023-06-11T00:38:18.447Z,21.94
2023-06-11T00:40:48.530Z,21.89
2023-06-11T00:43:18.339Z,21.93
2023-06-11T00:45:46.545Z,21.91
2023-06-11T00:48:14.330Z,21.88
2023-06-11T00:50:48.621Z,21.86
2023-06-11T00:53:16.555Z,21.86
2023-06-11T00:55:44.331Z,21.82
2023-06-11T00:58:15.448Z,21.82
2023-06-11T01:00:46.662Z,21.78
2023-06-11T01:03:18.537Z,21.77
2023-06-11T01:05:53.389Z,21.75
2023-06-11T01:08:21.205Z,21.73
2023-06-11T01:10:50.493Z,21.76
2023-06-11T01:13:18.393Z,21.76
2023-06-11T01:15:46.187Z,21.70
2023-06-11T01:18:20.558Z,21.70
2023-06-11T01:20:57.568Z,21.70
2023-06-11T01:23:34.735Z,21.68
2023-06-11T01:26:27.145Z,21.69
2023-06-11T01:28:59.445Z,21.68
2023-06-11T01:31:30.691Z,21.63
2023-06-11T01:33:59.001Z,21.62
2023-06-11T01:36:30.034Z,21.57
2023-06-11T01:38:59.994Z,21.57
2023-06-11T01:41:28.372Z,21.51
2023-06-11T01:43:57.515Z,21.49
2023-06-11T01:46:25.500Z,21.48
2023-06-11T01:48:53.293Z,21.48
2023-06-11T01:51:23.075Z,21.43
2023-06-11T01:53:50.904Z,21.41
2023-06-11T01:56:18.763Z,21.40
2023-06-11T01:58:47.253Z,21.38
2023-06-11T02:01:16.472Z,21.44
2023-06-11T02:03:44.481Z,21.39
2023-06-11T02:06:12.709Z,21.37
2023-06-11T02:08:40.492Z,21.35
2023-06-11T02:11:08.242Z,21.33
2023-06-11T02:13:36.007Z,21.26
2023-06-11T02:16:03.887Z,21.28
2023-06-11T02:18:33.001Z,21.26
2023-06-11T02:21:00.803Z,21.22
2023-06-11T02:23:29.925Z,21.19
2023-06-11T02:25:57.734Z,21.08
2023-06-11T02:28:25.553Z,21.05
2023-06-11T02:30:53.306Z,21.05
2023-06-11T02:33:21.169Z,21.04
2023-06-11T02:35:50.577Z,21.00
2023-06-11T02:38:18.441Z,20.98
2023-06-11T02:40:46.296Z,20.97
2023-06-11T02:43:14.044Z,21.00
2023-06-11T02:45:41.849Z,20.98
2023-06-11T02:48:09.798Z,20.98
2023-06-11T02:50:37.638Z,21.03
2023-06-11T02:53:06.793Z,20.96
2023-06-11T02:55:34.534Z,20.96
2023-06-11T02:58:02.312Z,20.96
2023-06-11T03:00:31.246Z,20.95
2023-06-11T03:02:59.130Z,20.97
2023-06-11T03:05:27.017Z,20.97
2023-06-11T03:07:54.947Z,20.93
2023-06-11T03:10:25.069Z,20.93
2023-06-11T03:12:52.899Z,20.90
2023-06-11T03:15:20.887Z,20.87
2023-06-11T03:17:48.687Z,20.83
2023-06-11T03:20:16.629Z,20.81
2023-06-11T03:22:44.431Z,20.79
2023-06-11T03:25:12.530Z,20.80
2023-06-11T03:27:41.877Z,20.80
2023-06-11T03:30:12.594Z,20.75
2023-06-11T03:32:40.784Z,20.74
2023-06-11T03:35:09.020Z,20.74
2023-06-11T03:37:37.050Z,20.73
2023-06-11T03:40:05.534Z,20.73
2023-06-11T03:42:33.460Z,20.73
2023-06-11T03:45:02.613Z,20.73
2023-06-11T03:47:30.570Z,20.73
2023-06-11T03:49:58.356Z,20.71
2023-06-11T03:52:26.141Z,20.73
2023-06-11T03:54:53.912Z,20.74
2023-06-11T03:57:21.685Z,20.73
2023-06-11T03:59:49.447Z,20.70
2023-06-11T04:02:18.809Z,20.64
2023-06-11T04:04:46.828Z,20.65
2023-06-11T04:07:14.693Z,20.63
2023-06-11T04:09:42.453Z,20.65
2023-06-11T04:12:11.094Z,20.63
2023-06-11T04:14:39.297Z,20.59
2023-06-11T04:17:07.891Z,20.56
2023-06-11T04:19:37.069Z,20.58
2023-06-11T04:22:05.189Z,20.59
2023-06-11T04:24:33.042Z,20.58
2023-06-11T04:27:00.884Z,20.57
2023-06-11T04:29:30.550Z,20.56
2023-06-11T04:32:03.037Z,20.53
2023-06-11T04:34:31.152Z,20.53
2023-06-11T04:37:00.351Z,20.59
2023-06-11T04:39:28.948Z,20.64
2023-06-11T04:41:56.784Z,20.62
2023-06-11T04:44:24.775Z,20.66
2023-06-11T04:46:59.109Z,20.69
2023-06-11T04:49:28.312Z,20.73
2023-06-11T04:51:58.597Z,20.75
2023-06-11T04:54:28.463Z,20.77
2023-06-11T04:56:56.442Z,20.81
2023-06-11T04:59:24.233Z,20.86
2023-06-11T05:01:55.022Z,20.88
2023-06-11T05:04:23.807Z,20.93
2023-06-11T05:06:51.613Z,20.91
2023-06-11T05:09:19.437Z,20.95
2023-06-11T05:11:48.578Z,20.98
2023-06-11T05:14:16.510Z,20.99
2023-06-11T05:16:44.369Z,21.06
2023-06-11T05:19:12.250Z,21.12
2023-06-11T05:21:40.491Z,21.17
2023-06-11T05:24:09.444Z,21.23
2023-06-11T05:26:38.536Z,21.30
2023-06-11T05:29:07.740Z,21.35
2023-06-11T05:31:37.093Z,21.40
2023-06-11T05:34:05.063Z,21.45
2023-06-11T05:36:33.511Z,21.53
2023-06-11T05:39:01.359Z,21.63
2023-06-11T05:41:29.160Z,21.73
2023-06-11T05:43:57.118Z,21.82
2023-06-11T05:46:26.775Z,21.89
2023-06-11T05:48:54.653Z,21.96
2023-06-11T05:51:22.456Z,22.04
2023-06-11T05:53:50.204Z,22.12
2023-06-11T05:56:18.023Z,22.22
2023-06-11T05:58:45.880Z,22.32
2023-06-11T06:01:13.657Z,22.40
2023-06-11T06:03:42.953Z,22.50
2023-06-11T06:06:11.056Z,22.62
2023-06-11T06:08:38.870Z,22.67
2023-06-11T06:11:06.634Z,22.67
2023-06-11T06:13:34.460Z,22.73
2023-06-11T06:16:02.307Z,22.78
2023-06-11T06:18:30.906Z,22.83
2023-06-11T06:21:00.151Z,22.90
2023-06-11T06:23:28.029Z,23.01
2023-06-11T06:25:55.826Z,23.08
2023-06-11T06:28:23.591Z,23.23
2023-06-11T06:30:51.426Z,23.31
2023-06-11T06:33:19.294Z,23.47
2023-06-11T06:35:47.105Z,23.61
2023-06-11T06:38:16.375Z,23.70
2023-06-11T06:40:44.222Z,23.83
2023-06-11T06:43:12.039Z,23.92
2023-06-11T06:45:40.287Z,24.00
2023-06-11T06:48:08.198Z,24.10
2023-06-11T06:50:36.054Z,24.24
2023-06-11T06:53:03.964Z,24.37
2023-06-11T06:55:33.183Z,24.45
2023-06-11T06:58:01.279Z,24.53
2023-06-11T07:00:29.064Z,24.58
2023-06-11T07:02:56.875Z,24.64
2023-06-11T07:05:24.752Z,24.76
2023-06-11T07:07:52.554Z,24.91
2023-06-11T07:10:20.581Z,25.00
2023-06-11T07:12:49.707Z,25.06
2023-06-11T07:15:17.584Z,25.14
2023-06-11T07:17:45.465Z,25.25
2023-06-11T07:20:14.300Z,25.35
2023-06-11T07:22:42.373Z,25.50
2023-06-11T07:25:10.829Z,25.65
2023-06-11T07:27:38.619Z,25.74
2023-06-11T07:30:09.475Z,25.82
2023-06-11T07:32:37.910Z,25.89
2023-06-11T07:35:06.769Z,25.89
2023-06-11T07:37:34.589Z,26.03
2023-06-11T07:40:02.448Z,26.15
2023-06-11T07:42:30.247Z,26.33
2023-06-11T07:44:58.020Z,26.29
2023-06-11T07:47:27.332Z,26.22
2023-06-11T07:49:55.174Z,26.33
2023-06-11T07:52:23.052Z,26.38
2023-06-11T07:54:50.910Z,26.51
2023-06-11T07:57:18.826Z,26.69
2023-06-11T07:59:46.680Z,26.85
2023-06-11T08:02:15.699Z,26.99
2023-06-11T08:04:45.117Z,27.14
2023-06-11T08:07:13.517Z,27.22
2023-06-11T08:09:41.678Z,27.25
2023-06-11T08:12:12.884Z,27.32
2023-06-11T08:14:40.759Z,27.45
2023-06-11T08:17:09.764Z,27.49
2023-06-11T08:19:37.565Z,27.42
2023-06-11T08:22:07.174Z,27.43
2023-06-11T08:24:34.942Z,27.57
2023-06-11T08:27:03.604Z,27.74
2023-06-11T08:29:32.112Z,27.90
2023-06-11T08:31:59.939Z,27.84
2023-06-11T08:34:27.734Z,27.92
2023-06-11T08:36:55.976Z,27.88
2023-06-11T08:39:25.234Z,27.93
2023-06-11T08:41:53.044Z,28.05
2023-06-11T08:44:21.316Z,28.27
2023-06-11T08:46:51.415Z,28.29
2023-06-11T08:49:22.393Z,28.47
2023-06-11T08:51:50.882Z,28.50
2023-06-11T08:54:19.990Z,28.54
2023-06-11T08:56:50.331Z,28.66
2023-06-11T08:59:20.191Z,28.76
2023-06-11T09:01:51.995Z,28.75
2023-06-11T09:04:20.311Z,28.77
2023-06-11T09:06:52.396Z,28.80
2023-06-11T09:09:20.375Z,28.93
2023-06-11T09:11:49.686Z,28.92
2023-06-11T09:14:17.515Z,29.06
2023-06-11T09:16:47.447Z,29.17
2023-06-11T09:19:16.950Z,29.12
2023-06-11T09:21:52.117Z,29.18
2023-06-11T09:24:20.902Z,29.22
2023-06-11T09:26:55.413Z,29.11
2023-06-11T09:29:23.678Z,29.06
2023-06-11T09:32:04.583Z,29.15
2023-06-11T09:34:35.831Z,29.42
2023-06-11T09:37:04.455Z,29.68
2023-06-11T09:39:32.555Z,29.77
2023-06-11T09:42:01.780Z,29.90
2023-06-11T09:44:33.938Z,29.88
2023-06-11T09:47:03.755Z,29.97
2023-06-11T09:49:31.595Z,30.07
2023-06-11T09:52:01.050Z,30.24
2023-06-11T09:54:29.518Z,30.31
2023-06-11T09:56:57.763Z,30.45
2023-06-11T09:59:27.676Z,30.29
2023-06-11T10:01:55.678Z,30.31
2023-06-11T10:04:23.622Z,30.34
2023-06-11T10:06:52.595Z,30.25
2023-06-11T10:09:21.545Z,30.24
2023-06-11T10:11:49.946Z,30.12
2023-06-11T10:14:18.232Z,30.07
2023-06-11T10:16:52.226Z,30.08
2023-06-11T10:19:20.506Z,30.16
2023-06-11T10:21:51.446Z,30.30
2023-06-11T10:24:24.096Z,30.23
2023-06-11T10:27:06.220Z,30.30
2023-06-11T10:29:38.838Z,30.42
2023-06-11T10:32:17.870Z,30.48
2023-06-11T10:34:46.686Z,30.47
2023-06-11T10:37:14.566Z,30.62
2023-06-11T10:39:52.730Z,30.67
2023-06-11T10:42:28.584Z,30.66
2023-06-11T10:45:00.698Z,30.73
2023-06-11T10:47:31.657Z,30.85
2023-06-11T10:50:10.541Z,30.87
2023-06-11T10:52:50.280Z,30.84
2023-06-11T10:55:18.731Z,30.95
2023-06-11T10:57:46.749Z,31.11
2023-06-11T11:00:15.373Z,31.17
2023-06-11T11:02:45.720Z,31.07
2023-06-11T11:05:13.845Z,31.07
2023-06-11T11:07:45.823Z,31.04
2023-06-11T11:10:16.622Z,31.04
2023-06-11T11:12:46.620Z,31.26
2023-06-11T11:15:15.073Z,31.44
2023-06-11T11:17:45.780Z,31.55
2023-06-11T11:20:18.418Z,31.53
2023-06-11T11:22:52.900Z,31.58
2023-06-11T11:25:23.420Z,31.31
2023-06-11T11:27:51.286Z,31.29
2023-06-11T11:30:19.568Z,31.34
2023-06-11T11:32:48.882Z,31.46
2023-06-11T11:35:17.001Z,31.61
2023-06-11T11:37:47.507Z,31.75
2023-06-11T11:40:15.511Z,31.75
2023-06-11T11:42:47.665Z,31.83
2023-06-11T11:45:16.087Z,31.97
2023-06-11T11:47:45.304Z,31.95
2023-06-11T11:50:24.038Z,31.97
2023-06-11T11:53:04.590Z,32.04
2023-06-11T11:55:35.403Z,31.99
2023-06-11T11:58:07.215Z,31.88
2023-06-11T12:00:35.756Z,31.91
2023-06-11T12:03:11.205Z,31.90
2023-06-11T12:05:41.057Z,31.89
2023-06-11T12:08:09.520Z,32.05
2023-06-11T12:10:37.298Z,32.16
2023-06-11T12:13:06.916Z,32.04
2023-06-11T12:15:34.801Z,32.13
2023-06-11T12:18:02.638Z,32.23
2023-06-11T12:20:30.544Z,32.51
2023-06-11T12:22:59.830Z,32.47
2023-06-11T12:25:27.961Z,32.66
2023-06-11T12:27:56.314Z,32.99
2023-06-11T12:30:24.136Z,33.13
2023-06-11T12:32:53.847Z,33.05
2023-06-11T12:35:21.776Z,33.03
2023-06-11T12:37:49.632Z,32.87
2023-06-11T12:40:18.957Z,32.74
2023-06-11T12:42:47.023Z,32.55
2023-06-11T12:45:15.985Z,32.48
2023-06-11T12:47:44.080Z,32.74
2023-06-11T12:50:13.696Z,32.68
2023-06-11T12:52:43.937Z,32.66
2023-06-11T12:55:11.768Z,32.88
2023-06-11T12:57:40.895Z,33.07
2023-06-11T13:00:10.846Z,33.30
2023-06-11T13:02:39.201Z,33.40
2023-06-11T13:05:07.960Z,33.49
2023-06-11T13:07:35.820Z,33.63
2023-06-11T13:10:03.799Z,33.80
2023-06-11T13:12:32.152Z,33.75
2023-06-11T13:15:01.333Z,33.85
2023-06-11T13:17:29.137Z,34.05
2023-06-11T13:19:57.237Z,34.03
2023-06-11T13:22:25.201Z,34.08
2023-06-11T13:24:53.647Z,34.11
2023-06-11T13:27:23.892Z,34.20
2023-06-11T13:29:51.670Z,34.25
2023-06-11T13:32:20.945Z,34.28
2023-06-11T13:34:48.801Z,34.24
2023-06-11T13:37:16.692Z,34.31
2023-06-11T13:39:44.510Z,34.23
2023-06-11T13:42:12.515Z,34.33
2023-06-11T13:44:40.314Z,34.51
2023-06-11T13:47:09.301Z,34.53
2023-06-11T13:49:38.690Z,34.46
2023-06-11T13:52:07.072Z,34.32
2023-06-11T13:54:34.866Z,34.47
2023-06-11T13:57:02.962Z,34.57
2023-06-11T13:59:32.423Z,34.72
2023-06-11T14:02:02.662Z,34.81
2023-06-11T14:04:30.698Z,34.70
2023-06-11T14:07:00.268Z,34.78
2023-06-11T14:09:28.093Z,34.85
2023-06-11T14:11:55.936Z,34.86
2023-06-11T14:14:30.931Z,34.75
2023-06-11T14:16:59.898Z,34.53
2023-06-11T14:19:27.785Z,34.32
2023-06-11T14:21:59.810Z,34.43
2023-06-11T14:24:27.679Z,34.42
2023-06-11T14:26:56.340Z,34.33
2023-06-11T14:29:24.271Z,34.47
2023-06-11T14:31:52.181Z,34.68
2023-06-11T14:34:19.990Z,34.78
2023-06-11T14:36:47.774Z,34.82
2023-06-11T14:39:18.842Z,34.85
2023-06-11T14:41:46.834Z,34.79
2023-06-11T14:44:15.323Z,34.70
2023-06-11T14:46:43.403Z,34.71
2023-06-11T14:49:12.202Z,34.54
2023-06-11T14:51:40.056Z,34.63
2023-06-11T14:54:07.843Z,34.70
2023-06-11T14:56:37.040Z,34.77
2023-06-11T14:59:04.876Z,34.83
2023-06-11T15:01:32.725Z,34.78
2023-06-11T15:04:00.636Z,34.82
2023-06-11T15:06:28.407Z,34.88
2023-06-11T15:08:56.211Z,34.96
2023-06-11T15:11:29.679Z,35.00
2023-06-11T15:13:59.876Z,35.03
2023-06-11T15:16:28.339Z,34.97
2023-06-11T15:18:56.320Z,34.90
2023-06-11T15:21:24.309Z,34.93
2023-06-11T15:23:52.161Z,34.92
2023-06-11T15:26:20.051Z,34.88
2023-06-11T15:28:47.856Z,34.78
2023-06-11T15:31:19.229Z,34.76
2023-06-11T15:34:20.839Z,34.68
2023-06-11T15:37:18.268Z,34.59
2023-06-11T15:39:50.963Z,34.36
2023-06-11T15:42:19.507Z,34.21
2023-06-11T15:44:49.494Z,34.31
2023-06-11T15:47:19.373Z,34.31
2023-06-11T15:49:47.336Z,34.18
2023-06-11T15:52:15.277Z,34.10
2023-06-11T15:54:43.080Z,34.06
2023-06-11T15:57:11.046Z,33.94
2023-06-11T15:59:39.937Z,33.87
2023-06-11T16:02:07.883Z,33.81
2023-06-11T16:04:37.809Z,33.53
2023-06-11T16:07:07.937Z,33.36
2023-06-11T16:09:36.116Z,33.33
2023-06-11T16:12:04.483Z,33.40
2023-06-11T16:14:33.081Z,33.40
2023-06-11T16:17:00.864Z,33.25
2023-06-11T16:19:28.653Z,33.17
2023-06-11T16:21:57.939Z,33.18
2023-06-11T16:24:25.820Z,33.17
2023-06-11T16:26:53.640Z,33.16
2023-06-11T16:29:21.509Z,33.12
2023-06-11T16:31:49.423Z,33.08
2023-06-11T16:34:17.294Z,32.98
2023-06-11T16:36:45.109Z,32.95
2023-06-11T16:39:26.668Z,32.95
2023-06-11T16:41:56.136Z,32.91
2023-06-11T16:44:24.070Z,32.85
2023-06-11T16:46:52.061Z,32.79
2023-06-11T16:49:19.967Z,32.76
2023-06-11T16:51:47.768Z,32.70
2023-06-11T16:54:18.695Z,32.62
2023-06-11T16:56:47.164Z,32.58
2023-06-11T16:59:15.076Z,32.51
2023-06-11T17:01:43.255Z,32.47
2023-06-11T17:04:11.174Z,32.46
2023-06-11T17:06:39.194Z,32.45
2023-06-11T17:09:06.956Z,32.46
2023-06-11T17:11:36.208Z,32.38
2023-06-11T17:14:04.020Z,32.43
2023-06-11T17:16:31.958Z,32.37
2023-06-11T17:18:59.830Z,32.39
2023-06-11T17:21:27.600Z,32.37
2023-06-11T17:23:58.331Z,32.31
2023-06-11T17:26:28.295Z,32.21
2023-06-11T17:28:57.562Z,32.11
2023-06-11T17:31:25.421Z,31.94
2023-06-11T17:33:53.222Z,31.99
2023-06-11T17:36:21.050Z,32.00
2023-06-11T17:38:48.912Z,32.05
2023-06-11T17:41:16.677Z,32.06
2023-06-11T17:43:44.491Z,31.97
2023-06-11T17:46:16.506Z,31.94
2023-06-11T17:48:44.461Z,31.89
2023-06-11T17:51:12.307Z,31.90
2023-06-11T17:53:40.140Z,31.86
2023-06-11T17:56:07.919Z,31.76
2023-06-11T17:58:40.676Z,31.71
2023-06-11T18:01:08.955Z,31.72
2023-06-11T18:03:38.260Z,31.73
2023-06-11T18:06:06.186Z,31.71
2023-06-11T18:08:34.110Z,31.68
2023-06-11T18:11:01.936Z,31.66
2023-06-11T18:13:29.708Z,31.63
2023-06-11T18:15:57.502Z,31.52
2023-06-11T18:18:25.283Z,31.48
2023-06-11T18:20:54.733Z,31.37
2023-06-11T18:23:22.518Z,31.36
2023-06-11T18:25:51.659Z,31.31
2023-06-11T18:28:20.242Z,31.37
2023-06-11T18:30:48.184Z,31.33
2023-06-11T18:33:15.992Z,31.25
2023-06-11T18:35:43.805Z,31.18
2023-06-11T18:38:12.946Z,31.17
2023-06-11T18:40:40.814Z,31.09
2023-06-11T18:43:08.643Z,30.99
2023-06-11T18:45:36.584Z,30.92
2023-06-11T18:48:04.650Z,30.89
2023-06-11T18:50:32.508Z,30.83
2023-06-11T18:53:00.398Z,30.79
2023-06-11T18:55:30.835Z,30.73
2023-06-11T18:57:58.953Z,30.72
2023-06-11T19:00:27.345Z,30.68
2023-06-11T19:02:55.303Z,30.60
2023-06-11T19:05:23.134Z,30.54
2023-06-11T19:07:50.994Z,30.52
2023-06-11T19:10:23.793Z,30.51
2023-06-11T19:12:54.945Z,30.49
2023-06-11T19:15:23.507Z,30.47
2023-06-11T19:17:51.419Z,30.42
2023-06-11T19:20:19.265Z,30.38
2023-06-11T19:22:47.105Z,30.34
2023-06-11T19:25:15.033Z,30.28
2023-06-11T19:27:42.892Z,30.07
2023-06-11T19:30:15.288Z,30.02
2023-06-11T19:32:43.638Z,30.03
2023-06-11T19:35:11.661Z,30.04
2023-06-11T19:37:39.590Z,30.06
2023-06-11T19:40:09.118Z,30.08
2023-06-11T19:42:36.916Z,30.07
2023-06-11T19:45:06.727Z,30.05
2023-06-11T19:47:36.247Z,30.00
2023-06-11T19:50:06.696Z,29.95
2023-06-11T19:52:34.609Z,29.90
2023-06-11T19:55:02.429Z,29.90
2023-06-11T19:57:30.327Z,29.82
2023-06-11T20:00:00.124Z,29.74
2023-06-11T20:02:28.534Z,29.70
2023-06-11T20:04:57.794Z,29.59
2023-06-11T20:07:25.838Z,29.50
2023-06-11T20:09:53.681Z,29.40
2023-06-11T20:12:21.463Z,29.37
2023-06-11T20:14:49.903Z,29.34
2023-06-11T20:17:17.715Z,29.33
2023-06-11T20:19:47.613Z,29.24
2023-06-11T20:22:16.792Z,29.18
2023-06-11T20:24:44.564Z,29.07
2023-06-11T20:27:12.426Z,29.01
2023-06-11T20:29:40.513Z,28.93
2023-06-11T20:32:09.994Z,28.82
2023-06-11T20:34:38.664Z,28.64
2023-06-11T20:37:07.427Z,28.45
2023-06-11T20:39:36.568Z,28.22
2023-06-11T20:42:04.976Z,28.07
2023-06-11T20:44:32.810Z,27.96
2023-06-11T20:47:01.743Z,27.84
2023-06-11T20:49:29.680Z,27.76
2023-06-11T20:51:57.542Z,27.63
2023-06-11T20:54:25.372Z,27.52
2023-06-11T20:56:54.548Z,27.50
2023-06-11T20:59:22.377Z,27.40
2023-06-11T21:01:50.270Z,27.36
2023-06-11T21:04:18.178Z,27.29
2023-06-11T21:06:46.000Z,27.21
2023-06-11T21:09:13.873Z,27.13
2023-06-11T21:11:42.746Z,27.03
2023-06-11T21:14:14.701Z,26.97
2023-06-11T21:16:43.147Z,26.95
2023-06-11T21:19:11.255Z,26.82
2023-06-11T21:21:39.073Z,26.70
2023-06-11T21:24:07.448Z,26.59
2023-06-11T21:26:35.307Z,26.52
2023-06-11T21:29:03.216Z,26.45
2023-06-11T21:31:32.466Z,26.36
2023-06-11T21:34:00.909Z,26.33
2023-06-11T21:36:28.746Z,26.25
2023-06-11T21:38:56.580Z,26.20
2023-06-11T21:41:24.389Z,26.18
2023-06-11T21:43:52.236Z,26.15
2023-06-11T21:46:20.064Z,26.11
2023-06-11T21:48:49.368Z,26.03
2023-06-11T21:51:17.580Z,26.03
2023-06-11T21:53:45.419Z,25.99
2023-06-11T21:56:13.434Z,25.96
2023-06-11T21:58:41.319Z,25.95
2023-06-11T22:01:09.105Z,25.89
2023-06-11T22:03:36.993Z,25.89
2023-06-11T22:06:07.513Z,25.84
2023-06-11T22:08:35.912Z,25.82
2023-06-11T22:11:03.738Z,25.76
2023-06-11T22:13:33.862Z,25.67
2023-06-11T22:16:01.894Z,25.69
2023-06-11T22:18:30.178Z,25.62
2023-06-11T22:20:58.793Z,25.55
2023-06-11T22:23:45.134Z,25.49
2023-06-11T22:26:18.190Z,25.44
2023-06-11T22:28:46.136Z,25.40
2023-06-11T22:31:13.977Z,25.39
2023-06-11T22:33:41.761Z,25.36
2023-06-11T22:36:09.631Z,25.37
2023-06-11T22:38:38.751Z,25.31
2023-06-11T22:41:06.535Z,25.25
2023-06-11T22:43:34.559Z,25.20
2023-06-11T22:46:02.374Z,25.12
2023-06-11T22:48:30.182Z,25.06
2023-06-11T22:50:58.375Z,25.02
2023-06-11T22:53:28.937Z,24.97
2023-06-11T22:55:58.311Z,24.91
2023-06-11T22:58:26.499Z,24.92
2023-06-11T23:00:56.115Z,24.92
2023-06-11T23:03:24.018Z,24.86
2023-06-11T23:05:51.969Z,24.84
2023-06-11T23:08:19.806Z,24.79
2023-06-11T23:10:47.588Z,24.79
2023-06-11T23:13:16.840Z,24.74
2023-06-11T23:15:44.720Z,24.70
2023-06-11T23:18:12.962Z,24.67
2023-06-11T23:20:41.632Z,24.66
2023-06-11T23:23:10.164Z,24.56
2023-06-11T23:25:40.121Z,24.51
2023-06-11T23:28:13.603Z,24.49
2023-06-11T23:30:42.934Z,24.46
2023-06-11T23:33:14.019Z,24.43
2023-06-11T23:35:43.212Z,24.37
2023-06-11T23:38:11.158Z,24.33
2023-06-11T23:40:38.971Z,24.29
2023-06-11T23:43:07.005Z,24.24
2023-06-11T23:45:34.883Z,24.18
2023-06-11T23:48:04.173Z,24.19
2023-06-11T23:50:33.139Z,24.15
2023-06-11T23:53:00.985Z,24.10
2023-06-11T23:55:28.710Z,24.10
2023-06-11T23:58:16.715Z,24.05
